createdAt,value
2022-11-24T00:01:06.863Z,97918.69
2022-11-24T00:03:33.549Z,97916.06
2022-11-24T00:06:11.005Z,97922.31
2022-11-24T00:08:39.353Z,97924.94
2022-11-24T00:11:08.404Z,97926.63
2022-11-24T00:13:35.875Z,97933.41
2022-11-24T00:16:09.155Z,97936.72
2022-11-24T00:18:35.802Z,97934.09
2022-11-24T00:21:02.406Z,97941.00
2022-11-24T00:23:28.996Z,97934.03
2022-11-24T00:25:55.787Z,97945.41
2022-11-24T00:28:22.356Z,97943.78
2022-11-24T00:30:48.959Z,97942.94
2022-11-24T00:33:15.584Z,97940.31
2022-11-24T00:35:42.146Z,97934.09
2022-11-24T00:38:08.706Z,97926.25
2022-11-24T00:40:35.345Z,97935.97
2022-11-24T00:43:02.056Z,97940.25
2022-11-24T00:45:28.619Z,97936.72
2022-11-24T00:47:55.126Z,97924.66
2022-11-24T00:50:21.658Z,97922.22
2022-11-24T00:52:48.223Z,97925.06
2022-11-24T00:55:14.840Z,97933.19
2022-11-24T00:57:41.340Z,97928.56
2022-11-24T01:00:08.744Z,97934.88
2022-11-24T01:02:35.311Z,97948.94
2022-11-24T01:05:03.284Z,97944.91
2022-11-24T01:07:31.056Z,97940.59
2022-11-24T01:09:57.727Z,97944.97
2022-11-24T01:12:24.243Z,97951.28
2022-11-24T01:14:50.838Z,97947.94
2022-11-24T01:17:17.400Z,97952.47
2022-11-24T01:19:44.007Z,97957.69
2022-11-24T01:22:10.702Z,97952.88
2022-11-24T01:24:37.244Z,97953.66
2022-11-24T01:27:03.819Z,97950.44
2022-11-24T01:29:30.478Z,97949.75
2022-11-24T01:31:57.097Z,97957.75
2022-11-24T01:34:23.660Z,97963.16
2022-11-24T01:36:50.332Z,97961.53
2022-11-24T01:39:16.977Z,97959.09
2022-11-24T01:41:43.614Z,97959.94
2022-11-24T01:44:22.744Z,97965.09
2022-11-24T01:46:58.184Z,97966.00
2022-11-24T01:49:35.900Z,97962.63
2022-11-24T01:52:28.919Z,97970.47
2022-11-24T01:55:00.616Z,97973.66
2022-11-24T01:57:34.578Z,97973.50
2022-11-24T02:00:19.637Z,97966.53
2022-11-24T02:02:46.248Z,97970.66
2022-11-24T02:05:23.545Z,97973.19
2022-11-24T02:07:53.524Z,97976.63
2022-11-24T02:10:21.044Z,97971.22
2022-11-24T02:12:50.544Z,97970.47
2022-11-24T02:15:18.747Z,97964.84
2022-11-24T02:17:45.504Z,97957.88
2022-11-24T02:20:13.738Z,97962.06
2022-11-24T02:22:51.358Z,97963.09
2022-11-24T02:25:42.693Z,97979.44
2022-11-24T02:28:12.242Z,97969.00
2022-11-24T02:30:39.312Z,97967.78
2022-11-24T02:33:06.025Z,97967.53
2022-11-24T02:35:33.399Z,97969.16
2022-11-24T02:37:59.914Z,97977.75
2022-11-24T02:40:30.967Z,97982.22
2022-11-24T02:43:04.817Z,97991.78
2022-11-24T02:45:31.935Z,97986.50
2022-11-24T02:47:58.769Z,97993.25
2022-11-24T02:50:25.356Z,97988.13
2022-11-24T02:52:52.014Z,97993.16
2022-11-24T02:55:18.580Z,97995.03
2022-11-24T02:57:45.130Z,98000.16
2022-11-24T03:00:12.647Z,97999.16
2022-11-24T03:02:40.581Z,98000.81
2022-11-24T03:05:07.671Z,97994.66
2022-11-24T03:07:34.501Z,98001.56
2022-11-24T03:10:01.101Z,98000.81
2022-11-24T03:12:27.733Z,98001.41
2022-11-24T03:14:54.310Z,98001.34
2022-11-24T03:17:20.893Z,98001.22
2022-11-24T03:19:47.499Z,97996.00
2022-11-24T03:22:14.685Z,98000.41
2022-11-24T03:24:41.256Z,98002.91
2022-11-24T03:27:07.864Z,97999.53
2022-11-24T03:29:34.529Z,97999.47
2022-11-24T03:32:01.672Z,97984.56
2022-11-24T03:34:28.193Z,97987.09
2022-11-24T03:36:54.754Z,97989.53
2022-11-24T03:39:21.379Z,97993.06
2022-11-24T03:41:47.923Z,98010.50
2022-11-24T03:44:14.489Z,98000.06
2022-11-24T03:46:41.067Z,97990.34
2022-11-24T03:49:07.660Z,97997.19
2022-11-24T03:51:34.293Z,97993.81
2022-11-24T03:54:00.861Z,97999.13
2022-11-24T03:56:27.997Z,98000.91
2022-11-24T03:58:54.592Z,97995.59
2022-11-24T04:01:21.270Z,97994.50
2022-11-24T04:03:47.928Z,97997.94
2022-11-24T04:06:14.495Z,97998.69
2022-11-24T04:08:41.121Z,97997.94
2022-11-24T04:11:07.664Z,98006.53
2022-11-24T04:13:34.271Z,98016.16
2022-11-24T04:16:05.062Z,98005.44
2022-11-24T04:18:31.797Z,98018.03
2022-11-24T04:20:58.395Z,98016.16
2022-11-24T04:23:25.079Z,98001.13
2022-11-24T04:25:51.618Z,98002.06
2022-11-24T04:28:18.181Z,98009.91
2022-11-24T04:30:45.170Z,98008.16
2022-11-24T04:33:12.457Z,98009.81
2022-11-24T04:35:39.078Z,98007.22
2022-11-24T04:38:05.650Z,98022.78
2022-11-24T04:40:32.196Z,98014.13
2022-11-24T04:42:58.819Z,98032.41
2022-11-24T04:45:25.351Z,98038.31
2022-11-24T04:47:51.989Z,98047.91
2022-11-24T04:50:18.772Z,98039.41
2022-11-24T04:52:45.441Z,98047.00
2022-11-24T04:55:12.321Z,98047.84
2022-11-24T04:57:39.006Z,98055.69
2022-11-24T05:00:06.559Z,98052.03
2022-11-24T05:02:33.104Z,98052.97
2022-11-24T05:04:59.657Z,98059.97
2022-11-24T05:07:26.273Z,98051.38
2022-11-24T05:10:11.433Z,98059.22
2022-11-24T05:12:39.490Z,98056.63
2022-11-24T05:15:06.857Z,98051.53
2022-11-24T05:17:35.829Z,98060.97
2022-11-24T05:20:03.068Z,98057.69
2022-11-24T05:22:29.836Z,98068.13
2022-11-24T05:24:56.486Z,98061.09
2022-11-24T05:27:23.571Z,98069.06
2022-11-24T05:29:50.165Z,98070.63
2022-11-24T05:32:16.764Z,98067.13
2022-11-24T05:34:43.385Z,98068.94
2022-11-24T05:37:09.981Z,98072.28
2022-11-24T05:39:37.176Z,98074.06
2022-11-24T05:42:25.686Z,98077.34
2022-11-24T05:44:52.851Z,98085.19
2022-11-24T05:47:19.760Z,98085.09
2022-11-24T05:49:46.334Z,98098.94
2022-11-24T05:52:13.126Z,98086.88
2022-11-24T05:54:39.789Z,98092.03
2022-11-24T05:57:06.498Z,98106.91
2022-11-24T05:59:33.913Z,98097.25
2022-11-24T06:02:00.583Z,98099.00
2022-11-24T06:04:27.302Z,98099.75
2022-11-24T06:06:53.879Z,98101.28
2022-11-24T06:09:20.522Z,98092.50
2022-11-24T06:11:48.372Z,98101.13
2022-11-24T06:14:14.980Z,98109.22
2022-11-24T06:16:41.601Z,98104.06
2022-11-24T06:19:10.636Z,98106.69
2022-11-24T06:21:37.429Z,98105.69
2022-11-24T06:24:04.894Z,98101.28
2022-11-24T06:26:31.790Z,98101.38
2022-11-24T06:28:58.382Z,98109.13
2022-11-24T06:31:25.004Z,98102.19
2022-11-24T06:33:51.651Z,98110.97
2022-11-24T06:36:18.300Z,98111.06
2022-11-24T06:38:45.075Z,98117.88
2022-11-24T06:41:13.954Z,98116.97
2022-11-24T06:43:40.663Z,98115.38
2022-11-24T06:46:07.751Z,98126.75
2022-11-24T06:48:34.368Z,98128.50
2022-11-24T06:51:06.761Z,98132.75
2022-11-24T06:53:39.195Z,98144.13
2022-11-24T06:56:15.201Z,98138.13
2022-11-24T06:58:44.981Z,98140.91
2022-11-24T07:01:30.544Z,98152.03
2022-11-24T07:03:58.009Z,98160.63
2022-11-24T07:06:26.446Z,98167.47
2022-11-24T07:08:53.384Z,98164.84
2022-11-24T07:11:22.528Z,98167.38
2022-11-24T07:13:56.495Z,98170.00
2022-11-24T07:16:26.550Z,98179.38
2022-11-24T07:18:54.849Z,98184.59
2022-11-24T07:21:22.956Z,98190.66
2022-11-24T07:23:54.565Z,98201.03
2022-11-24T07:26:22.456Z,98207.03
2022-11-24T07:28:49.498Z,98218.25
2022-11-24T07:31:20.498Z,98220.94
2022-11-24T07:33:54.432Z,98225.25
2022-11-24T07:36:21.848Z,98231.16
2022-11-24T07:38:48.742Z,98223.31
2022-11-24T07:41:17.499Z,98234.78
2022-11-24T07:43:44.306Z,98238.06
2022-11-24T07:46:13.287Z,98241.38
2022-11-24T07:48:40.527Z,98239.59
2022-11-24T07:51:08.024Z,98249.28
2022-11-24T07:53:35.505Z,98249.22
2022-11-24T07:56:03.854Z,98250.91
2022-11-24T07:58:33.511Z,98257.00
2022-11-24T08:01:08.656Z,98269.00
2022-11-24T08:03:35.971Z,98273.28
2022-11-24T08:08:49.168Z,98286.38
2022-11-24T08:11:18.058Z,98282.75
2022-11-24T08:13:45.056Z,98290.34
2022-11-24T08:16:15.023Z,98288.16
2022-11-24T08:18:42.040Z,98290.25
2022-11-24T08:21:13.154Z,98297.00
2022-11-24T08:23:39.626Z,98300.38
2022-11-24T08:26:09.220Z,98298.63
2022-11-24T08:28:36.922Z,98306.53
2022-11-24T08:31:12.063Z,98305.63
2022-11-24T08:33:39.303Z,98315.91
2022-11-24T08:36:08.815Z,98318.69
2022-11-24T08:38:36.094Z,98318.69
2022-11-24T08:41:11.147Z,98329.84
2022-11-24T08:43:38.094Z,98330.78
2022-11-24T08:46:07.287Z,98334.22
2022-11-24T08:48:34.658Z,98337.69
2022-11-24T08:51:08.630Z,98334.22
2022-11-24T08:53:35.217Z,98344.78
2022-11-24T08:56:03.011Z,98330.00
2022-11-24T08:58:30.362Z,98342.94
2022-11-24T09:01:04.231Z,98344.44
2022-11-24T09:03:30.800Z,98342.69
2022-11-24T09:05:57.369Z,98351.28
2022-11-24T09:08:23.918Z,98352.91
2022-11-24T09:10:51.514Z,98369.09
2022-11-24T09:13:18.283Z,98365.25
2022-11-24T09:15:44.829Z,98367.69
2022-11-24T09:18:11.367Z,98363.22
2022-11-24T09:20:37.928Z,98377.81
2022-11-24T09:23:04.484Z,98369.84
2022-11-24T09:25:31.034Z,98382.66
2022-11-24T09:27:58.620Z,98383.56
2022-11-24T09:30:25.279Z,98392.47
2022-11-24T09:32:52.064Z,98393.84
2022-11-24T09:35:18.641Z,98396.69
2022-11-24T09:37:45.807Z,98405.63
2022-11-24T09:40:14.577Z,98407.25
2022-11-24T09:43:06.978Z,98407.22
2022-11-24T09:46:05.041Z,98409.47
2022-11-24T09:48:47.088Z,98408.72
2022-11-24T09:51:15.599Z,98411.09
2022-11-24T09:53:57.995Z,98411.13
2022-11-24T09:56:28.913Z,98417.72
2022-11-24T09:59:10.360Z,98417.31
2022-11-24T10:01:40.696Z,98419.16
2022-11-24T10:04:25.542Z,98422.03
2022-11-24T10:07:06.636Z,98424.75
2022-11-24T10:09:52.244Z,98427.19
2022-11-24T10:12:34.009Z,98431.59
2022-11-24T10:15:31.193Z,98434.88
2022-11-24T10:18:16.828Z,98426.41
2022-11-24T10:20:53.023Z,98436.72
2022-11-24T10:23:55.077Z,98441.78
2022-11-24T10:26:36.399Z,98435.38
2022-11-24T10:29:18.566Z,98439.63
2022-11-24T10:31:47.143Z,98444.69
2022-11-24T10:34:17.283Z,98442.00
2022-11-24T10:37:05.135Z,98455.56
2022-11-24T10:39:40.695Z,98453.19
2022-11-24T10:42:23.721Z,98461.50
2022-11-24T10:45:00.809Z,98457.09
2022-11-24T10:47:27.825Z,98454.75
2022-11-24T10:50:14.234Z,98454.06
2022-11-24T10:52:44.407Z,98449.75
2022-11-24T10:55:11.101Z,98450.59
2022-11-24T10:57:39.668Z,98458.22
2022-11-24T11:00:18.369Z,98463.53
2022-11-24T11:02:45.930Z,98462.69
2022-11-24T11:05:34.154Z,98460.13
2022-11-24T11:08:21.359Z,98462.75
2022-11-24T11:10:50.926Z,98461.91
2022-11-24T11:13:35.779Z,98450.41
2022-11-24T11:16:22.713Z,98457.25
2022-11-24T11:18:49.840Z,98454.28
2022-11-24T11:21:34.462Z,98460.03
2022-11-24T11:24:04.209Z,98463.47
2022-11-24T11:26:32.649Z,98467.88
2022-11-24T11:31:15.590Z,98462.03
2022-11-24T11:35:02.556Z,98469.19
2022-11-24T11:37:33.122Z,98466.34
2022-11-24T11:40:00.897Z,98469.06
2022-11-24T11:45:37.977Z,98468.75
2022-11-24T11:48:04.657Z,98472.66
2022-11-24T11:51:15.105Z,98474.13
2022-11-24T11:53:58.889Z,98471.81
2022-11-24T11:56:28.103Z,98480.53
2022-11-24T11:59:19.644Z,98480.19
2022-11-24T12:02:09.322Z,98474.13
2022-11-24T12:04:55.341Z,98483.59
2022-11-24T12:07:56.056Z,98481.84
2022-11-24T12:10:40.410Z,98477.91
2022-11-24T12:13:34.861Z,98471.88
2022-11-24T12:16:15.063Z,98474.31
2022-11-24T12:19:02.801Z,98464.63
2022-11-24T12:21:42.975Z,98465.09
2022-11-24T12:24:19.230Z,98468.41
2022-11-24T12:26:57.249Z,98475.38
2022-11-24T12:29:51.104Z,98468.16
2022-11-24T12:32:55.007Z,98476.22
2022-11-24T12:35:39.223Z,98473.38
2022-11-24T12:38:31.677Z,98471.59
2022-11-24T12:41:33.740Z,98465.59
2022-11-24T12:43:53.076Z,98469.28
2022-11-24T12:46:28.442Z,98468.56
2022-11-24T12:49:10.234Z,98464.97
2022-11-24T12:51:41.528Z,98469.06
2022-11-24T12:54:14.463Z,98466.47
2022-11-24T12:56:49.895Z,98469.88
2022-11-24T12:59:26.970Z,98473.00
2022-11-24T13:02:36.216Z,98466.06
2022-11-24T13:05:11.891Z,98468.06
2022-11-24T13:07:42.529Z,98465.19
2022-11-24T13:10:54.319Z,98468.22
2022-11-24T13:13:15.309Z,98466.34
2022-11-24T13:19:07.188Z,98464.75
2022-11-24T13:21:36.741Z,98457.84
2022-11-24T13:24:22.722Z,98463.44
2022-11-24T13:26:51.930Z,98461.81
2022-11-24T13:29:25.540Z,98463.72
2022-11-24T13:31:52.412Z,98463.06
2022-11-24T13:34:40.718Z,98464.66
2022-11-24T13:37:39.529Z,98458.94
2022-11-24T13:40:12.246Z,98462.59
2022-11-24T13:43:03.013Z,98465.97
2022-11-24T13:45:50.319Z,98455.28
2022-11-24T13:48:20.331Z,98457.59
2022-11-24T13:50:50.452Z,98452.91
2022-11-24T13:53:32.415Z,98457.69
2022-11-24T13:56:00.355Z,98449.34
2022-11-24T13:58:31.871Z,98452.41
2022-11-24T14:01:02.396Z,98445.13
2022-11-24T14:03:32.935Z,98443.56
2022-11-24T14:06:02.170Z,98446.31
2022-11-24T14:08:35.631Z,98445.03
2022-11-24T14:11:10.715Z,98437.72
2022-11-24T14:13:37.373Z,98438.25
2022-11-24T14:16:10.140Z,98441.00
2022-11-24T14:18:39.470Z,98442.13
2022-11-24T14:21:33.960Z,98444.66
2022-11-24T14:24:22.182Z,98435.38
2022-11-24T14:26:49.709Z,98443.44
2022-11-24T14:29:22.488Z,98446.47
2022-11-24T14:32:00.386Z,98432.31
2022-11-24T14:34:29.704Z,98433.06
2022-11-24T14:36:57.776Z,98431.53
2022-11-24T14:39:26.200Z,98432.69
2022-11-24T14:42:03.492Z,98425.84
2022-11-24T14:44:35.219Z,98429.78
2022-11-24T14:47:07.886Z,98431.66
2022-11-24T14:49:40.090Z,98436.81
2022-11-24T14:52:14.202Z,98435.22
2022-11-24T14:55:23.357Z,98438.59
2022-11-24T14:57:50.256Z,98438.41
2022-11-24T15:00:25.616Z,98438.97
2022-11-24T15:03:08.084Z,98434.84
2022-11-24T15:06:16.817Z,98439.25
2022-11-24T15:08:47.240Z,98436.06
2022-11-24T15:11:14.184Z,98432.13
2022-11-24T15:13:51.310Z,98438.75
2022-11-24T15:16:20.979Z,98433.69
2022-11-24T15:18:49.509Z,98434.03
2022-11-24T15:21:19.471Z,98435.09
2022-11-24T15:24:17.895Z,98440.69
2022-11-24T15:26:45.559Z,98452.69
2022-11-24T15:29:13.076Z,98448.06
2022-11-24T15:31:41.266Z,98450.22
2022-11-24T15:34:12.672Z,98446.34
2022-11-24T15:36:39.183Z,98451.47
2022-11-24T15:39:05.862Z,98461.47
2022-11-24T15:41:33.626Z,98457.31
2022-11-24T15:44:00.427Z,98449.78
2022-11-24T15:46:40.491Z,98458.84
2022-11-24T15:49:09.499Z,98461.06
2022-11-24T15:51:38.399Z,98465.56
2022-11-24T15:54:10.057Z,98464.81
2022-11-24T15:56:37.829Z,98464.81
2022-11-24T15:59:04.567Z,98464.00
2022-11-24T16:01:33.052Z,98465.06
2022-11-24T16:04:00.594Z,98468.69
2022-11-24T16:06:27.257Z,98474.00
2022-11-24T16:08:54.610Z,98466.22
2022-11-24T16:11:22.465Z,98468.09
2022-11-24T16:13:52.872Z,98466.66
2022-11-24T16:16:20.819Z,98466.06
2022-11-24T16:18:47.501Z,98471.91
2022-11-24T16:21:14.117Z,98476.63
2022-11-24T16:23:40.732Z,98481.25
2022-11-24T16:26:07.345Z,98475.59
2022-11-24T16:28:34.203Z,98479.44
2022-11-24T16:31:01.103Z,98473.63
2022-11-24T16:33:29.255Z,98480.78
2022-11-24T16:35:55.929Z,98468.72
2022-11-24T16:38:22.570Z,98471.75
2022-11-24T16:40:53.914Z,98467.50
2022-11-24T16:43:20.620Z,98477.53
2022-11-24T16:46:13.428Z,98480.22
2022-11-24T16:48:40.035Z,98487.53
2022-11-24T16:51:08.788Z,98485.94
2022-11-24T16:53:35.638Z,98481.88
2022-11-24T16:56:02.580Z,98481.94
2022-11-24T16:58:29.229Z,98477.78
2022-11-24T17:01:02.071Z,98480.63
2022-11-24T17:03:33.461Z,98487.88
2022-11-24T17:06:01.099Z,98481.88
2022-11-24T17:08:31.140Z,98478.72
2022-11-24T17:10:58.403Z,98480.66
2022-11-24T17:13:24.919Z,98489.34
2022-11-24T17:15:54.305Z,98486.88
2022-11-24T17:18:25.494Z,98491.31
2022-11-24T17:20:52.290Z,98491.50
2022-11-24T17:23:19.666Z,98490.75
2022-11-24T17:25:46.479Z,98495.69
2022-11-24T17:28:12.991Z,98486.28
2022-11-24T17:30:39.708Z,98497.81
2022-11-24T17:33:06.562Z,98498.88
2022-11-24T17:35:36.949Z,98498.28
2022-11-24T17:38:03.830Z,98490.66
2022-11-24T17:40:30.512Z,98489.09
2022-11-24T17:42:59.436Z,98491.00
2022-11-24T17:45:29.742Z,98489.69
2022-11-24T17:47:58.920Z,98494.03
2022-11-24T17:50:26.501Z,98482.97
2022-11-24T17:52:54.049Z,98485.88
2022-11-24T17:55:20.915Z,98479.03
2022-11-24T17:57:47.464Z,98479.25
2022-11-24T18:00:14.535Z,98479.41
2022-11-24T18:02:41.178Z,98480.59
2022-11-24T18:05:08.228Z,98486.81
2022-11-24T18:07:38.011Z,98479.19
2022-11-24T18:10:05.159Z,98485.25
2022-11-24T18:12:32.925Z,98487.25
2022-11-24T18:14:59.865Z,98486.53
2022-11-24T18:17:26.658Z,98481.56
2022-11-24T18:19:53.208Z,98470.50
2022-11-24T18:22:36.639Z,98464.66
2022-11-24T18:25:07.088Z,98471.97
2022-11-24T18:27:33.667Z,98470.41
2022-11-24T18:30:00.308Z,98461.97
2022-11-24T18:32:27.027Z,98475.25
2022-11-24T18:34:54.149Z,98473.72
2022-11-24T18:37:20.735Z,98473.84
2022-11-24T18:39:47.323Z,98477.31
2022-11-24T18:42:13.929Z,98477.44
2022-11-24T18:44:42.390Z,98474.97
2022-11-24T18:47:09.073Z,98468.13
2022-11-24T18:49:35.732Z,98467.28
2022-11-24T18:52:02.453Z,98482.16
2022-11-24T18:54:29.144Z,98483.78
2022-11-24T18:56:58.970Z,98489.09
2022-11-24T18:59:29.704Z,98497.94
2022-11-24T19:01:57.920Z,98495.56
2022-11-24T19:04:26.239Z,98487.97
2022-11-24T19:06:52.893Z,98497.59
2022-11-24T19:09:22.509Z,98495.06
2022-11-24T19:11:49.170Z,98496.81
2022-11-24T19:14:17.910Z,98494.16
2022-11-24T19:16:46.324Z,98494.94
2022-11-24T19:19:13.200Z,98494.09
2022-11-24T19:21:40.880Z,98497.53
2022-11-24T19:24:13.134Z,98493.03
2022-11-24T19:26:40.594Z,98494.88
2022-11-24T19:29:08.154Z,98501.97
2022-11-24T19:31:35.176Z,98500.41
2022-11-24T19:34:03.553Z,98504.91
2022-11-24T19:36:30.712Z,98504.94
2022-11-24T19:38:58.504Z,98499.03
2022-11-24T19:41:30.065Z,98499.94
2022-11-24T19:43:58.475Z,98494.06
2022-11-24T19:46:27.447Z,98497.41
2022-11-24T19:48:57.178Z,98493.94
2022-11-24T19:51:32.738Z,98498.38
2022-11-24T19:53:59.971Z,98497.53
2022-11-24T19:56:28.819Z,98497.59
2022-11-24T19:58:56.030Z,98491.66
2022-11-24T20:01:28.248Z,98491.72
2022-11-24T20:04:00.125Z,98498.69
2022-11-24T20:06:29.143Z,98497.91
2022-11-24T20:08:57.836Z,98492.91
2022-11-24T20:11:24.635Z,98495.69
2022-11-24T20:13:51.817Z,98488.06
2022-11-24T20:16:26.707Z,98493.41
2022-11-24T20:18:55.679Z,98499.81
2022-11-24T20:21:25.224Z,98493.88
2022-11-24T20:24:01.528Z,98492.38
2022-11-24T20:26:37.037Z,98497.75
2022-11-24T20:29:04.648Z,98497.69
2022-11-24T20:31:34.286Z,98498.56
2022-11-24T20:34:02.933Z,98497.81
2022-11-24T20:36:31.715Z,98496.25
2022-11-24T20:39:05.516Z,98498.19
2022-11-24T20:41:34.260Z,98495.03
2022-11-24T20:44:10.619Z,98496.91
2022-11-24T20:46:38.942Z,98490.97
2022-11-24T20:49:07.516Z,98492.00
2022-11-24T20:51:37.325Z,98483.44
2022-11-24T20:54:07.274Z,98486.88
2022-11-24T20:56:36.803Z,98491.03
2022-11-24T20:59:04.700Z,98493.56
2022-11-24T21:01:38.470Z,98491.81
2022-11-24T21:04:11.335Z,98490.13
2022-11-24T21:06:38.530Z,98489.47
2022-11-24T21:09:06.470Z,98492.84
2022-11-24T21:11:33.613Z,98495.34
2022-11-24T21:14:00.881Z,98495.34
2022-11-24T21:16:32.667Z,98492.72
2022-11-24T21:19:01.760Z,98487.69
2022-11-24T21:21:34.485Z,98491.16
2022-11-24T21:24:18.516Z,98489.56
2022-11-24T21:26:51.727Z,98490.38
2022-11-24T21:29:21.904Z,98486.91
2022-11-24T21:31:48.772Z,98485.88
2022-11-24T21:34:18.377Z,98485.59
2022-11-24T21:36:45.474Z,98491.28
2022-11-24T21:39:13.973Z,98486.84
2022-11-24T21:41:41.158Z,98481.59
2022-11-24T21:44:08.021Z,98482.34
2022-11-24T21:46:43.579Z,98476.13
2022-11-24T21:49:13.317Z,98477.03
2022-11-24T21:51:39.822Z,98481.53
2022-11-24T21:54:06.483Z,98477.81
2022-11-24T21:56:33.083Z,98468.13
2022-11-24T21:58:59.593Z,98476.75
2022-11-24T22:01:28.480Z,98467.09
2022-11-24T22:03:55.487Z,98469.06
2022-11-24T22:06:22.115Z,98471.69
2022-11-24T22:08:49.721Z,98466.44
2022-11-24T22:11:18.781Z,98472.69
2022-11-24T22:13:46.903Z,98476.91
2022-11-24T22:16:16.041Z,98482.84
2022-11-24T22:18:43.842Z,98484.50
2022-11-24T22:21:18.633Z,98478.44
2022-11-24T22:23:45.337Z,98484.41
2022-11-24T22:26:14.612Z,98489.53
2022-11-24T22:28:42.669Z,98482.38
2022-11-24T22:31:15.235Z,98484.97
2022-11-24T22:33:42.010Z,98480.69
2022-11-24T22:36:10.305Z,98478.84
2022-11-24T22:38:37.757Z,98483.09
2022-11-24T22:41:10.438Z,98472.69
2022-11-24T22:43:39.141Z,98473.47
2022-11-24T22:46:17.638Z,98476.91
2022-11-24T22:48:45.493Z,98472.59
2022-11-24T22:51:15.124Z,98475.19
2022-11-24T22:53:42.386Z,98476.13
2022-11-24T22:56:12.255Z,98473.50
2022-11-24T22:58:39.536Z,98475.19
2022-11-24T23:01:12.506Z,98472.59
2022-11-24T23:03:40.287Z,98469.88
2022-11-24T23:06:12.768Z,98469.03
2022-11-24T23:08:40.199Z,98467.25
2022-11-24T23:11:09.429Z,98468.25
2022-11-24T23:13:36.560Z,98467.38
2022-11-24T23:16:05.826Z,98472.69
2022-11-24T23:18:33.260Z,98465.69
2022-11-24T23:21:13.210Z,98463.94
2022-11-24T23:23:40.533Z,98476.25
2022-11-24T23:26:12.991Z,98470.19
2022-11-24T23:28:40.122Z,98476.44
2022-11-24T23:31:09.652Z,98470.38
2022-11-24T23:33:36.809Z,98466.91
2022-11-24T23:36:07.122Z,98463.47
2022-11-24T23:38:33.882Z,98459.22
2022-11-24T23:41:04.433Z,98461.06
2022-11-24T23:43:34.843Z,98462.88
2022-11-24T23:46:06.280Z,98459.50
2022-11-24T23:48:33.753Z,98458.75
2022-11-24T23:51:08.411Z,98460.50
2022-11-24T23:53:36.127Z,98456.16
2022-11-24T23:56:02.979Z,98461.38
2022-11-24T23:58:30.065Z,98456.06
